Marstein — LAQN — position and weather

sailwx.info

Track history (hours):
 
Tides and Currents Weather Stations Pressure Air Temp Water Temp Dewpoint Dewpoint Depression Visibility Wind Speed Wind Dir Waves Ship Positions

Marstein

Last reported at 2017-Apr-23 19:30 UTC. Time now 2017-Apr-23 19:41 UTC.
Position N 60°12' E 005°36'.

Length 87 m; draft 4.7 m.

Type: Passenger vessel. MMSI: 257317400.

Date/timePositionNaut miles runAvg speedWind from/ knotsBaromVisibWave heightAir tempDewpointWater temp
2017-Apr-23 19:30N 60°12' E 005°36'1 2.7
2017-Apr-23 18:59N 60°13' E 005°33'1 2.8
2017-Apr-23 18:30N 60°13' E 005°36'0 0.2
2017-Apr-23 18:00N 60°12' E 005°36'1 2.6
2017-Apr-23 17:30N 60°13' E 005°33'0 0.9
2017-Apr-23 16:58N 60°13' E 005°32'1 1.3
2017-Apr-23 16:30N 60°13' E 005°33'1 2.1
2017-Apr-23 16:00N 60°13' E 005°36'1 1.1
2017-Apr-23 15:30N 60°13' E 005°35'1 1.4
2017-Apr-23 14:54N 60°13' E 005°33'0 0.4
2017-Apr-23 14:21N 60°13' E 005°33'2 1.8
2017-Apr-23 13:30N 60°12' E 005°36'1 2.9
2017-Apr-23 13:00N 60°13' E 005°33'0 0.5
2017-Apr-23 12:30N 60°13' E 005°32'2 3.2
2017-Apr-23 12:00N 60°13' E 005°36'0 0.4
2017-Apr-23 11:30N 60°12' E 005°36'2 2.5
2017-Apr-23 10:51N 60°13' E 005°32'2 4.7
2017-Apr-23 10:30N 60°12' E 005°36'0 0.1
2017-Apr-23 10:00N 60°12' E 005°36'1 1.5
2017-Apr-23 09:30N 60°13' E 005°34'0 1.0
2017-Apr-23 09:00N 60°13' E 005°33'0 0.9
2017-Apr-23 08:26N 60°13' E 005°32'0 0.0
2017-Apr-23 07:52N 60°13' E 005°32'1 1.9
2017-Apr-23 07:30N 60°13' E 005°34'0 0.1
2017-Apr-23 06:59N 60°13' E 005°34'1 2.1
2017-Apr-23 06:30N 60°13' E 005°36'0 0.3
2017-Apr-23 06:00N 60°12' E 005°36'0 0.9
2017-Apr-23 05:29N 60°13' E 005°35'1 0.1
2017-Apr-22 21:10N 60°13' E 005°33'1 8.2
2017-Apr-22 21:01N 60°12' E 005°36'1 2.5
2017-Apr-22 20:30N 60°13' E 005°33'1 2.6
2017-Apr-22 20:00N 60°12' E 005°36'0 0.0
2017-Apr-22 19:30N 60°12' E 005°36'1 2.8
2017-Apr-22 19:00N 60°13' E 005°33'1 2.7
2017-Apr-22 18:30N 60°12' E 005°36'0 0.3
2017-Apr-22 18:00N 60°12' E 005°36'1 3.0
2017-Apr-22 17:30N 60°13' E 005°33'0 0.0
2017-Apr-22 16:55N 60°13' E 005°33'0 0.5
2017-Apr-22 16:30N 60°13' E 005°33'1 2.2
2017-Apr-22 16:00N 60°13' E 005°35'0 0.5
2017-Apr-22 15:29N 60°13' E 005°35'1 2.4
2017-Apr-22 15:00N 60°13' E 005°32'0 0.0
2017-Apr-22 14:21N 60°13' E 005°32'2 1.9
2017-Apr-22 13:30N 60°12' E 005°36'1 2.7
2017-Apr-22 13:00N 60°13' E 005°33'0 0.3
2017-Apr-22 12:21N 60°13' E 005°33'1 3.9
2017-Apr-22 12:00N 60°13' E 005°35'0 0.7
2017-Apr-22 11:30N 60°12' E 005°36'2 2.4
2017-Apr-22 10:51N 60°13' E 005°32'1 4.1
2017-Apr-22 10:30N 60°13' E 005°35'0 0.5
2017-Apr-22 10:00N 60°12' E 005°36'1 1.4
2017-Apr-22 09:31N 60°13' E 005°34'1 1.4
2017-Apr-22 08:59N 60°13' E 005°33'0 0.7
2017-Apr-22 08:30N 60°13' E 005°32'0 0.4
2017-Apr-22 07:52N 60°13' E 005°33'0 1.2
2017-Apr-22 07:30N 60°13' E 005°34'0 0.4
2017-Apr-22 07:00N 60°13' E 005°34'1 1.5
2017-Apr-22 06:30N 60°12' E 005°35'0 0.3
2017-Apr-22 06:00N 60°12' E 005°36'1 1.3
2017-Apr-22 05:30N 60°13' E 005°34'0 0.4
2017-Apr-22 05:00N 60°13' E 005°35'1 1.9
2017-Apr-22 04:30N 60°13' E 005°33'1 2.4
2017-Apr-22 03:55N 60°12' E 005°36'0 0.0
2017-Apr-22 03:25N 60°12' E 005°36'0 0.0
2017-Apr-22 02:58N 60°12' E 005°36'0 0.0
2017-Apr-22 02:25N 60°12' E 005°36'0 0.0
2017-Apr-22 01:55N 60°12' E 005°36'0 0.0
2017-Apr-22 01:25N 60°12' E 005°36'0 0.0
2017-Apr-22 00:55N 60°12' E 005°36'0 0.0
2017-Apr-22 00:13N 60°12' E 005°36'0 0.0
2017-Apr-21 23:55N 60°12' E 005°36'0 0.0
2017-Apr-21 23:25N 60°12' E 005°36'0 0.0
2017-Apr-21 22:55N 60°12' E 005°36'0 0.0
2017-Apr-21 22:25N 60°12' E 005°36'0 0.0
2017-Apr-21 22:00N 60°12' E 005°36'0 0.0
2017-Apr-21 21:30N 60°12' E 005°36'1 1.2
2017-Apr-21 21:00N 60°13' E 005°34'1 1.1
2017-Apr-21 20:30N 60°12' E 005°36'0 0.0
2017-Apr-21 20:00N 60°12' E 005°36'0 0.3
2017-Apr-21 19:30N 60°12' E 005°36'1 2.8
2017-Apr-21 18:59N 60°13' E 005°33'1 2.7
2017-Apr-21 18:30N 60°13' E 005°35'0 0.4
2017-Apr-21 18:00N 60°12' E 005°36'1 2.9
2017-Apr-21 17:30N 60°13' E 005°33'0 0.2
2017-Apr-21 16:54N 60°13' E 005°33'0 0.8
2017-Apr-21 16:30N 60°13' E 005°34'1 1.9
2017-Apr-21 16:00N 60°13' E 005°35'1 1.0
2017-Apr-21 15:30N 60°13' E 005°34'1 1.5
2017-Apr-21 14:55N 60°13' E 005°33'0 0.4
2017-Apr-21 14:21N 60°13' E 005°32'2 1.9
2017-Apr-21 13:28N 60°12' E 005°36'1 3.1
2017-Apr-21 13:00N 60°13' E 005°33'0 0.4
2017-Apr-21 12:23N 60°13' E 005°32'2 4.1
2017-Apr-21 12:00N 60°13' E 005°35'0 0.4
2017-Apr-21 11:29N 60°12' E 005°36'2 2.7
2017-Apr-21 10:53N 60°13' E 005°32'2 4.5
2017-Apr-21 10:30N 60°12' E 005°36'0 0.0
2017-Apr-21 10:00N 60°12' E 005°36'1 2.8
2017-Apr-21 09:30N 60°13' E 005°33'0 0.3
2017-Apr-21 08:55N 60°13' E 005°33'0 0.1
2017-Apr-21 08:26N 60°13' E 005°32'0 0.2
2017-Apr-21 07:54N 60°13' E 005°32'0 1.2
2017-Apr-21 07:30N 60°13' E 005°33'0 0.2
2017-Apr-21 07:00N 60°13' E 005°33'1 2.6
2017-Apr-21 06:30N 60°13' E 005°36'0 0.4
2017-Apr-21 06:00N 60°12' E 005°36'1 2.5
2017-Apr-21 05:27N 60°13' E 005°33'0 0.6
2017-Apr-21 04:56N 60°13' E 005°32'1 1.8
2017-Apr-21 04:30N 60°13' E 005°34'1 1.6
2017-Apr-21 04:00N 60°13' E 005°35'0 0.5
2017-Apr-21 03:30N 60°12' E 005°36'0 0.0
2017-Apr-21 02:46N 60°12' E 005°36'0 0.0
2017-Apr-21 02:22N 60°12' E 005°36'0 0.0
2017-Apr-21 01:58N 60°12' E 005°36'0 0.0
2017-Apr-21 01:22N 60°12' E 005°36'0 0.0
2017-Apr-21 00:49N 60°12' E 005°36'0 0.0
2017-Apr-21 00:19N 60°12' E 005°36'0 0.0
2017-Apr-20 23:58N 60°12' E 005°36'0 0.0
2017-Apr-20 23:28N 60°12' E 005°36'0 0.0
2017-Apr-20 22:52N 60°12' E 005°36'0 0.0
2017-Apr-20 22:16N 60°12' E 005°36'0 0.0
2017-Apr-20 22:00N 60°12' E 005°36'0 0.0
2017-Apr-20 21:30N 60°12' E 005°36'1 1.4
2017-Apr-20 21:00N 60°13' E 005°34'1 1.2
2017-Apr-20 20:30N 60°13' E 005°36'0 0.0
2017-Apr-20 20:00N 60°13' E 005°36'0 0.3
2017-Apr-20 19:30N 60°12' E 005°36'2 3.2
2017-Apr-20 19:00N 60°13' E 005°32'2 3.2
2017-Apr-20 18:30N 60°12' E 005°36'0 0.2
2017-Apr-20 18:00N 60°12' E 005°36'1 2.9
2017-Apr-20 17:30N 60°13' E 005°33'0 0.0
2017-Apr-20 16:54N 60°13' E 005°33'0 0.9
2017-Apr-20 16:30N 60°13' E 005°34'1 2.1
2017-Apr-20 16:00N 60°13' E 005°36'1 1.2
2017-Apr-20 15:30N 60°13' E 005°34'1 1.6
2017-Apr-20 14:55N 60°13' E 005°32'0 0.3
2017-Apr-20 14:19N 60°13' E 005°33'1 1.7
2017-Apr-20 13:31N 60°12' E 005°36'1 2.7
2017-Apr-20 13:00N 60°13' E 005°33'0 0.4
2017-Apr-20 12:21N 60°13' E 005°33'2 4.7
2017-Apr-20 12:00N 60°12' E 005°36'0 0.3
2017-Apr-20 11:29N 60°12' E 005°36'2 2.6
2017-Apr-20 10:51N 60°13' E 005°32'2 4.6
2017-Apr-20 10:30N 60°12' E 005°36'0 0.0
2017-Apr-20 10:00N 60°12' E 005°36'1 3.0
2017-Apr-20 09:30N 60°13' E 005°33'0 0.0
2017-Apr-20 08:56N 60°13' E 005°33'0 0.6
2017-Apr-20 08:29N 60°13' E 005°32'0 0.0
2017-Apr-20 07:54N 60°13' E 005°32'1 1.7
2017-Apr-20 07:30N 60°13' E 005°34'0 0.3
2017-Apr-20 07:00N 60°13' E 005°33'1 2.1
2017-Apr-20 06:30N 60°13' E 005°36'0 0.4
2017-Apr-20 06:00N 60°12' E 005°36'2 2.7
2017-Apr-20 05:26N 60°13' E 005°33'0 0.1
2017-Apr-20 04:50N 60°13' E 005°33'0 1.3
2017-Apr-20 04:30N 60°13' E 005°34'1 1.9
2017-Apr-20 04:00N 60°13' E 005°36'0 0.3
2017-Apr-20 03:30N 60°12' E 005°36'0 0.0
2017-Apr-20 02:57N 60°12' E 005°36'0 0.0
2017-Apr-20 02:21N 60°12' E 005°36'0 0.0
2017-Apr-20 01:57N 60°12' E 005°36'0 0.0
2017-Apr-20 01:15N 60°12' E 005°36'0 0.0
2017-Apr-20 00:57N 60°12' E 005°36'0 0.0
2017-Apr-20 00:27N 60°12' E 005°36'0 0.0
2017-Apr-19 23:57N 60°12' E 005°36'0 0.0
2017-Apr-19 23:27N 60°12' E 005°36'0 0.0
2017-Apr-19 22:57N 60°12' E 005°36'0 0.0
2017-Apr-19 22:27N 60°12' E 005°36'0 0.0
2017-Apr-19 21:57N 60°12' E 005°36'0 0.0
2017-Apr-19 21:30N 60°12' E 005°36'1 1.1
2017-Apr-19 21:00N 60°13' E 005°35'0 0.8
2017-Apr-19 20:30N 60°13' E 005°35'0 0.1
2017-Apr-19 20:00N 60°13' E 005°36'0 0.5
2017-Apr-19 19:28N 60°12' E 005°36'1 3.1
2017-Apr-19 19:00N 60°13' E 005°33'1 2.8
2017-Apr-19 18:30N 60°13' E 005°36'0 0.4
2017-Apr-19 18:00N 60°12' E 005°36'2 3.1
2017-Apr-19 17:30N 60°13' E 005°33'0 0.2
2017-Apr-19 16:56N 60°13' E 005°32'0 0.7
2017-Apr-19 16:30N 60°13' E 005°33'1 2.4
2017-Apr-19 16:00N 60°13' E 005°35'1 1.1
2017-Apr-19 15:30N 60°13' E 005°34'1 1.2
2017-Apr-19 14:55N 60°13' E 005°33'0 0.7
2017-Apr-19 14:23N 60°13' E 005°32'2 1.9
2017-Apr-19 13:30N 60°12' E 005°36'1 2.6
2017-Apr-19 12:59N 60°13' E 005°33'0 0.5
2017-Apr-19 12:21N 60°13' E 005°33'1 4.2
2017-Apr-19 12:00N 60°13' E 005°36'0 0.5
2017-Apr-19 11:30N 60°12' E 005°36'2 2.7
2017-Apr-19 10:54N 60°13' E 005°32'2 4.2
2017-Apr-19 10:30N 60°12' E 005°36'0 0.0
2017-Apr-19 10:00N 60°12' E 005°36'1 2.6
2017-Apr-19 09:29N 60°13' E 005°33'0 0.4
2017-Apr-19 08:55N 60°13' E 005°33'0 0.0
2017-Apr-19 08:25N 60°13' E 005°33'0 0.1
2017-Apr-19 07:50N 60°13' E 005°33'0 1.0
2017-Apr-19 07:29N 60°13' E 005°33'0 0.5
2017-Apr-19 07:00N 60°13' E 005°34'1 1.9
2017-Apr-19 06:30N 60°12' E 005°36'0 0.3
2017-Apr-19 06:00N 60°12' E 005°36'1 2.2
2017-Apr-19 05:25N 60°13' E 005°33'0 0.3
2017-Apr-19 04:50N 60°13' E 005°33'0 0.9
2017-Apr-19 04:30N 60°13' E 005°33'1 2.3
2017-Apr-19 04:00N 60°12' E 005°36'0 0.3
2017-Apr-19 03:30N 60°12' E 005°36'0 0.0
2017-Apr-19 02:59N 60°12' E 005°36'0 0.0
2017-Apr-19 02:30N 60°12' E 005°36'0 0.0
2017-Apr-19 01:59N 60°12' E 005°36'0 0.0
2017-Apr-19 01:30N 60°12' E 005°36'0 0.0
2017-Apr-19 01:00N 60°12' E 005°36'0 0.0
2017-Apr-19 00:30N 60°12' E 005°36'0 0.0
2017-Apr-19 00:00N 60°12' E 005°36'0 0.0
2017-Apr-18 23:30N 60°12' E 005°36'0 0.0
2017-Apr-18 23:00N 60°12' E 005°36'0 0.0
2017-Apr-18 22:30N 60°12' E 005°36'0 0.0
2017-Apr-18 22:00N 60°12' E 005°36'0 0.0
2017-Apr-18 21:30N 60°12' E 005°36'0 0.9
2017-Apr-18 21:00N 60°13' E 005°35'0 0.9
2017-Apr-18 20:30N 60°12' E 005°36'0 0.0
2017-Apr-18 20:00N 60°12' E 005°36'0 0.1
2017-Apr-18 19:30N 60°12' E 005°36'1 2.8
2017-Apr-18 18:59N 60°13' E 005°33'1 2.1
2017-Apr-18 18:30N 60°13' E 005°35'0 0.9
2017-Apr-18 17:59N 60°12' E 005°36'1 3.0
2017-Apr-18 17:30N 60°13' E 005°33'0 0.1
2017-Apr-18 16:54N 60°13' E 005°33'0 1.0
2017-Apr-18 16:30N 60°13' E 005°34'1 2.0
2017-Apr-18 16:00N 60°12' E 005°36'1 1.0
2017-Apr-18 15:30N 60°13' E 005°35'1 1.4
2017-Apr-18 14:55N 60°13' E 005°33'1 1.4
2017-Apr-18 14:00N 60°13' E 005°35'0 0.4
2017-Apr-18 13:30N 60°12' E 005°36'1 2.7
2017-Apr-18 13:00N 60°13' E 005°33'0 0.2
2017-Apr-18 12:20N 60°13' E 005°33'1 3.8
2017-Apr-18 12:00N 60°12' E 005°35'0 0.4
2017-Apr-18 11:30N 60°12' E 005°36'2 2.3
2017-Apr-18 10:50N 60°13' E 005°33'2 4.5
2017-Apr-18 10:30N 60°12' E 005°36'0 0.0
2017-Apr-18 09:58N 60°12' E 005°36'1 2.8
2017-Apr-18 09:28N 60°13' E 005°33'0 0.4
2017-Apr-18 09:00N 60°13' E 005°33'0 0.2
2017-Apr-18 08:27N 60°13' E 005°33'0 0.4
2017-Apr-18 07:53N 60°13' E 005°32'0 1.3
2017-Apr-18 07:30N 60°13' E 005°33'0 0.2
2017-Apr-18 07:00N 60°13' E 005°34'1 1.9
2017-Apr-18 06:30N 60°13' E 005°35'0 0.4
2017-Apr-18 06:00N 60°12' E 005°36'2 2.6
2017-Apr-18 05:25N 60°13' E 005°33'0 0.3
2017-Apr-18 04:53N 60°13' E 005°32'1 1.6
2017-Apr-18 04:30N 60°13' E 005°34'1 1.5
2017-Apr-18 04:00N 60°13' E 005°35'0 0.5
2017-Apr-18 03:18N 60°12' E 005°36'0 0.0
2017-Apr-18 02:36N 60°12' E 005°36'0 0.0
2017-Apr-18 02:30N 60°12' E 005°36'0 0.0
2017-Apr-18 01:48N 60°12' E 005°36'0 0.0
2017-Apr-18 01:30N 60°12' E 005°36'0 0.0
2017-Apr-18 00:54N 60°12' E 005°36'0 0.0
2017-Apr-18 00:24N 60°12' E 005°36'0 0.0
2017-Apr-18 00:00N 60°12' E 005°36'0 0.0
2017-Apr-17 23:30N 60°12' E 005°36'0 0.0
2017-Apr-17 22:48N 60°12' E 005°36'0 0.0
2017-Apr-17 22:30N 60°12' E 005°36'0 0.0
2017-Apr-17 21:57N 60°12' E 005°36'0 0.0
2017-Apr-17 21:30N 60°12' E 005°36'0 0.0
2017-Apr-17 21:00N 60°12' E 005°36'1 3.0
2017-Apr-17 20:30N 60°13' E 005°33'0 0.0
2017-Apr-17 19:40N 60°13' E 005°33'1 9.2
2017-Apr-17 19:30N 60°12' E 005°36'1 2.6
2017-Apr-17 18:59N 60°13' E 005°33'1 2.6
2017-Apr-17 18:30N 60°13' E 005°36'0 0.4
2017-Apr-17 18:00N 60°12' E 005°36'1 2.9
2017-Apr-17 17:30N 60°13' E 005°33'0 0.1
2017-Apr-17 16:54N 60°13' E 005°33'0 0.2
2017-Apr-17 16:30N 60°13' E 005°33'1 3.0
2017-Apr-17 16:00N 60°12' E 005°36'1 1.3
2017-Apr-17 15:30N 60°13' E 005°34'1 1.6
2017-Apr-17 14:58N 60°13' E 005°33'2 1.6
2017-Apr-17 14:00N 60°12' E 005°36'0 0.3
2017-Apr-17 13:30N 60°12' E 005°36'2 3.1
2017-Apr-17 13:00N 60°13' E 005°33'0 0.2
2017-Apr-17 12:22N 60°13' E 005°32'2 4.3
2017-Apr-17 12:00N 60°13' E 005°36'0 0.4
2017-Apr-17 11:30N 60°12' E 005°36'2 2.4
2017-Apr-17 10:51N 60°13' E 005°32'2 4.4
2017-Apr-17 10:30N 60°12' E 005°36'0 0.3
2017-Apr-17 10:00N 60°12' E 005°36'0 0.5
2017-Apr-17 09:29N 60°13' E 005°35'1 2.3
2017-Apr-17 08:59N 60°13' E 005°33'0 0.7
2017-Apr-17 08:29N 60°13' E 005°32'0 0.2
2017-Apr-17 07:52N 60°13' E 005°33'0 0.7
2017-Apr-17 07:29N 60°13' E 005°33'0 0.4
2017-Apr-17 07:00N 60°13' E 005°33'1 1.9
2017-Apr-17 06:30N 60°13' E 005°35'0 0.4
2017-Apr-17 05:58N 60°12' E 005°36'0 0.3
2017-Apr-17 05:30N 60°12' E 005°36'2 0.2
2017-Apr-16 22:16N 60°13' E 005°32'2 6.3
2017-Apr-16 22:00N 60°12' E 005°36'0 0.1
2017-Apr-16 21:30N 60°12' E 005°36'0 0.0
2017-Apr-16 21:00N 60°12' E 005°36'1 3.0
2017-Apr-16 20:30N 60°13' E 005°33'0 0.4
2017-Apr-16 19:44N 60°13' E 005°32'2 7.0
2017-Apr-16 19:30N 60°12' E 005°36'1 2.7
2017-Apr-16 19:00N 60°13' E 005°33'1 2.5
2017-Apr-16 18:30N 60°12' E 005°35'0 0.4
2017-Apr-16 18:00N 60°12' E 005°36'0 0.7
2017-Apr-16 17:30N 60°13' E 005°35'1 1.8
2017-Apr-16 17:00N 60°13' E 005°33'0 0.8
2017-Apr-16 16:24N 60°13' E 005°32'2 4.2
2017-Apr-16 16:00N 60°12' E 005°36'0 0.4
2017-Apr-16 15:30N 60°13' E 005°35'1 2.3
2017-Apr-16 14:59N 60°13' E 005°33'1 1.4
2017-Apr-16 14:00N 60°13' E 005°35'0 0.3
2017-Apr-16 13:30N 60°12' E 005°36'1 3.0
2017-Apr-16 13:00N 60°13' E 005°33'0 0.2
2017-Apr-16 12:23N 60°13' E 005°32'1 3.8
2017-Apr-16 12:00N 60°13' E 005°35'0 0.5
2017-Apr-16 11:30N 60°12' E 005°36'2 2.4
2017-Apr-16 10:51N 60°13' E 005°33'1 4.0
2017-Apr-16 10:30N 60°13' E 005°35'0 0.5
2017-Apr-16 10:00N 60°12' E 005°36'0 0.2
2017-Apr-16 09:30N 60°12' E 005°36'1 2.2
2017-Apr-16 09:00N 60°13' E 005°33'1 1.1
2017-Apr-16 08:26N 60°13' E 005°32'0 0.0
2017-Apr-16 08:00N 60°13' E 005°32'1 1.2
2017-Apr-16 07:30N 60°13' E 005°33'0 0.5
2017-Apr-16 06:59N 60°13' E 005°33'1 1.9
2017-Apr-16 06:30N 60°13' E 005°35'1 1.1
2017-Apr-16 06:00N 60°12' E 005°36'1 1.0
2017-Apr-16 05:30N 60°13' E 005°35'1 0.1
2017-Apr-15 21:12N 60°13' E 005°32'2 8.0
2017-Apr-15 21:00N 60°12' E 005°36'1 2.9
2017-Apr-15 20:30N 60°13' E 005°33'1 2.8
2017-Apr-15 20:00N 60°12' E 005°36'0 0.0
2017-Apr-15 19:30N 60°12' E 005°36'1 2.6
2017-Apr-15 19:00N 60°13' E 005°33'1 2.5
2017-Apr-15 18:30N 60°12' E 005°36'0 0.2
2017-Apr-15 18:00N 60°12' E 005°36'1 2.4
2017-Apr-15 17:29N 60°13' E 005°33'0 0.9
2017-Apr-15 16:57N 60°13' E 005°32'1 1.4
2017-Apr-15 16:30N 60°13' E 005°34'1 2.0
2017-Apr-15 16:00N 60°13' E 005°36'0 0.9
2017-Apr-15 15:29N 60°13' E 005°35'1 1.3
2017-Apr-15 14:55N 60°13' E 005°33'1 1.2
2017-Apr-15 13:59N 60°13' E 005°35'0 0.4
2017-Apr-15 13:30N 60°12' E 005°36'1 2.9
2017-Apr-15 13:00N 60°13' E 005°33'0 0.2
2017-Apr-15 12:21N 60°13' E 005°33'2 4.2
2017-Apr-15 12:00N 60°13' E 005°36'0 0.4
2017-Apr-15 11:30N 60°12' E 005°36'1 2.1
2017-Apr-15 10:50N 60°13' E 005°33'1 4.3
2017-Apr-15 10:30N 60°13' E 005°36'0 0.3
2017-Apr-15 09:59N 60°12' E 005°36'0 0.5
2017-Apr-15 09:30N 60°13' E 005°35'1 2.1
2017-Apr-15 09:00N 60°13' E 005°33'0 0.9
2017-Apr-15 08:30N 60°13' E 005°32'0 0.0
2017-Apr-15 07:55N 60°13' E 005°32'0 1.0
2017-Apr-15 07:29N 60°13' E 005°33'0 0.1
2017-Apr-15 07:00N 60°13' E 005°33'1 1.7
2017-Apr-15 06:30N 60°13' E 005°35'0 0.8
2017-Apr-15 05:58N 60°12' E 005°36'0 0.0
2017-Apr-15 05:26N 60°12' E 005°36'0 0.3
2017-Apr-15 05:00N 60°12' E 005°36'1 1.9
2017-Apr-15 04:30N 60°13' E 005°34'1 1.9
2017-Apr-15 03:59N 60°12' E 005°36'0 0.0
2017-Apr-15 03:26N 60°12' E 005°36'0 0.0
2017-Apr-15 02:44N 60°12' E 005°36'0 0.0
2017-Apr-15 02:26N 60°12' E 005°36'0 0.0
2017-Apr-15 01:56N 60°12' E 005°36'0 0.0
2017-Apr-15 01:20N 60°12' E 005°36'0 0.0
2017-Apr-15 00:35N 60°12' E 005°36'0 0.0
2017-Apr-15 00:29N 60°12' E 005°36'0 0.0
2017-Apr-14 23:53N 60°12' E 005°36'0 0.0
2017-Apr-14 23:29N 60°12' E 005°36'0 0.0
2017-Apr-14 22:50N 60°12' E 005°36'0 0.0
2017-Apr-14 22:26N 60°12' E 005°36'0 0.0
2017-Apr-14 22:00N 60°12' E 005°36'0 0.0
2017-Apr-14 21:30N 60°12' E 005°36'0 0.0
2017-Apr-14 20:59N 60°12' E 005°36'1 2.6
2017-Apr-14 20:30N 60°13' E 005°33'0 0.3
2017-Apr-14 19:42N 60°13' E 005°33'1 7.7
2017-Apr-14 19:30N 60°12' E 005°36'1 2.9
2017-Apr-14 19:00N 60°13' E 005°33'1 2.3
2017-Apr-14 18:30N 60°13' E 005°35'0 0.7
2017-Apr-14 17:58N 60°12' E 005°36'1 2.7
2017-Apr-14 17:30N 60°13' E 005°33'0 0.9
2017-Apr-14 16:59N 60°13' E 005°32'0 0.0
2017-Apr-14 16:30N 60°13' E 005°32'1 2.7
2017-Apr-14 15:59N 60°13' E 005°35'0 0.2
2017-Apr-14 15:30N 60°13' E 005°35'1 2.2
2017-Apr-14 14:57N 60°13' E 005°33'1 1.3
2017-Apr-14 13:59N 60°13' E 005°35'0 0.6
2017-Apr-14 13:30N 60°12' E 005°36'1 2.6
2017-Apr-14 13:00N 60°13' E 005°33'0 0.2
2017-Apr-14 12:21N 60°13' E 005°33'1 3.5
2017-Apr-14 12:00N 60°13' E 005°35'0 0.6
2017-Apr-14 11:30N 60°12' E 005°36'2 2.4
2017-Apr-14 10:52N 60°13' E 005°33'1 2.0
2017-Apr-14 10:30N 60°13' E 005°34'1 1.7
2017-Apr-14 10:00N 60°12' E 005°36'0 0.1
2017-Apr-14 09:30N 60°12' E 005°36'1 2.0
2017-Apr-14 09:00N 60°13' E 005°34'1 1.3
2017-Apr-14 08:27N 60°13' E 005°32'0 0.1
2017-Apr-14 07:52N 60°13' E 005°32'1 1.6
2017-Apr-14 07:30N 60°13' E 005°34'0 0.4
2017-Apr-14 07:00N 60°13' E 005°34'1 1.3
2017-Apr-14 06:30N 60°13' E 005°35'0 0.5
2017-Apr-14 06:00N 60°12' E 005°36'0 0.8
2017-Apr-14 05:30N 60°13' E 005°35'1 0.2
2017-Apr-13 22:10N 60°13' E 005°32'2 9.6
2017-Apr-13 22:00N 60°12' E 005°36'0 0.2
2017-Apr-13 21:30N 60°12' E 005°36'0 0.1
2017-Apr-13 21:00N 60°12' E 005°36'2 3.0
2017-Apr-13 20:30N 60°13' E 005°33'0 0.4
2017-Apr-13 20:00N 60°13' E 005°32'  
Track history (hours):
 
Tides and Currents Weather Stations Pressure Air Temp Water Temp Dewpoint Dewpoint Depression Visibility Wind Speed Wind Dir Waves Ship Positions

Marstein

Last reported at 2017-Apr-23 19:30 UTC. Time now 2017-Apr-23 19:41 UTC.
Position N 60°12' E 005°36'.

Length 87 m; draft 4.7 m.

Type: Passenger vessel. MMSI: 257317400.

Date/timePositionNaut miles runAvg speedWind from/ knotsBaromVisibWave heightAir tempDewpointWater temp
2017-Apr-23 19:30N 60°12' E 005°36'1 2.7
2017-Apr-23 18:59N 60°13' E 005°33'1 2.8
2017-Apr-23 18:30N 60°13' E 005°36'0 0.2
2017-Apr-23 18:00N 60°12' E 005°36'1 2.6
2017-Apr-23 17:30N 60°13' E 005°33'0 0.9
2017-Apr-23 16:58N 60°13' E 005°32'1 1.3
2017-Apr-23 16:30N 60°13' E 005°33'1 2.1
2017-Apr-23 16:00N 60°13' E 005°36'1 1.1
2017-Apr-23 15:30N 60°13' E 005°35'1 1.4
2017-Apr-23 14:54N 60°13' E 005°33'0 0.4
2017-Apr-23 14:21N 60°13' E 005°33'2 1.8
2017-Apr-23 13:30N 60°12' E 005°36'1 2.9
2017-Apr-23 13:00N 60°13' E 005°33'0 0.5
2017-Apr-23 12:30N 60°13' E 005°32'2 3.2
2017-Apr-23 12:00N 60°13' E 005°36'0 0.4
2017-Apr-23 11:30N 60°12' E 005°36'2 2.5
2017-Apr-23 10:51N 60°13' E 005°32'2 4.7
2017-Apr-23 10:30N 60°12' E 005°36'0 0.1
2017-Apr-23 10:00N 60°12' E 005°36'1 1.5
2017-Apr-23 09:30N 60°13' E 005°34'0 1.0
2017-Apr-23 09:00N 60°13' E 005°33'0 0.9
2017-Apr-23 08:26N 60°13' E 005°32'0 0.0
2017-Apr-23 07:52N 60°13' E 005°32'1 1.9
2017-Apr-23 07:30N 60°13' E 005°34'0 0.1
2017-Apr-23 06:59N 60°13' E 005°34'1 2.1
2017-Apr-23 06:30N 60°13' E 005°36'0 0.3
2017-Apr-23 06:00N 60°12' E 005°36'0 0.9
2017-Apr-23 05:29N 60°13' E 005°35'1 0.1
2017-Apr-22 21:10N 60°13' E 005°33'1 8.2
2017-Apr-22 21:01N 60°12' E 005°36'1 2.5
2017-Apr-22 20:30N 60°13' E 005°33'1 2.6
2017-Apr-22 20:00N 60°12' E 005°36'0 0.0
2017-Apr-22 19:30N 60°12' E 005°36'1 2.8
2017-Apr-22 19:00N 60°13' E 005°33'1 2.7
2017-Apr-22 18:30N 60°12' E 005°36'0 0.3
2017-Apr-22 18:00N 60°12' E 005°36'1 3.0
2017-Apr-22 17:30N 60°13' E 005°33'0 0.0
2017-Apr-22 16:55N 60°13' E 005°33'0 0.5
2017-Apr-22 16:30N 60°13' E 005°33'1 2.2
2017-Apr-22 16:00N 60°13' E 005°35'0 0.5
2017-Apr-22 15:29N 60°13' E 005°35'1 2.4
2017-Apr-22 15:00N 60°13' E 005°32'0 0.0
2017-Apr-22 14:21N 60°13' E 005°32'2 1.9
2017-Apr-22 13:30N 60°12' E 005°36'1 2.7
2017-Apr-22 13:00N 60°13' E 005°33'0 0.3
2017-Apr-22 12:21N 60°13' E 005°33'1 3.9
2017-Apr-22 12:00N 60°13' E 005°35'0 0.7
2017-Apr-22 11:30N 60°12' E 005°36'2 2.4
2017-Apr-22 10:51N 60°13' E 005°32'1 4.1
2017-Apr-22 10:30N 60°13' E 005°35'0 0.5
2017-Apr-22 10:00N 60°12' E 005°36'1 1.4
2017-Apr-22 09:31N 60°13' E 005°34'1 1.4
2017-Apr-22 08:59N 60°13' E 005°33'0 0.7
2017-Apr-22 08:30N 60°13' E 005°32'0 0.4
2017-Apr-22 07:52N 60°13' E 005°33'0 1.2
2017-Apr-22 07:30N 60°13' E 005°34'0 0.4
2017-Apr-22 07:00N 60°13' E 005°34'1 1.5
2017-Apr-22 06:30N 60°12' E 005°35'0 0.3
2017-Apr-22 06:00N 60°12' E 005°36'1 1.3
2017-Apr-22 05:30N 60°13' E 005°34'0 0.4
2017-Apr-22 05:00N 60°13' E 005°35'1 1.9
2017-Apr-22 04:30N 60°13' E 005°33'1 2.4
2017-Apr-22 03:55N 60°12' E 005°36'0 0.0
2017-Apr-22 03:25N 60°12' E 005°36'0 0.0
2017-Apr-22 02:58N 60°12' E 005°36'0 0.0
2017-Apr-22 02:25N 60°12' E 005°36'0 0.0
2017-Apr-22 01:55N 60°12' E 005°36'0 0.0
2017-Apr-22 01:25N 60°12' E 005°36'0 0.0
2017-Apr-22 00:55N 60°12' E 005°36'0 0.0
2017-Apr-22 00:13N 60°12' E 005°36'0 0.0
2017-Apr-21 23:55N 60°12' E 005°36'0 0.0
2017-Apr-21 23:25N 60°12' E 005°36'0 0.0
2017-Apr-21 22:55N 60°12' E 005°36'0 0.0
2017-Apr-21 22:25N 60°12' E 005°36'0 0.0
2017-Apr-21 22:00N 60°12' E 005°36'0 0.0
2017-Apr-21 21:30N 60°12' E 005°36'1 1.2
2017-Apr-21 21:00N 60°13' E 005°34'1 1.1
2017-Apr-21 20:30N 60°12' E 005°36'0 0.0
2017-Apr-21 20:00N 60°12' E 005°36'0 0.3
2017-Apr-21 19:30N 60°12' E 005°36'1 2.8
2017-Apr-21 18:59N 60°13' E 005°33'1 2.7
2017-Apr-21 18:30N 60°13' E 005°35'0 0.4
2017-Apr-21 18:00N 60°12' E 005°36'1 2.9
2017-Apr-21 17:30N 60°13' E 005°33'0 0.2
2017-Apr-21 16:54N 60°13' E 005°33'0 0.8
2017-Apr-21 16:30N 60°13' E 005°34'1 1.9
2017-Apr-21 16:00N 60°13' E 005°35'1 1.0
2017-Apr-21 15:30N 60°13' E 005°34'1 1.5
2017-Apr-21 14:55N 60°13' E 005°33'0 0.4
2017-Apr-21 14:21N 60°13' E 005°32'2 1.9
2017-Apr-21 13:28N 60°12' E 005°36'1 3.1
2017-Apr-21 13:00N 60°13' E 005°33'0 0.4
2017-Apr-21 12:23N 60°13' E 005°32'2 4.1
2017-Apr-21 12:00N 60°13' E 005°35'0 0.4
2017-Apr-21 11:29N 60°12' E 005°36'2 2.7
2017-Apr-21 10:53N 60°13' E 005°32'2 4.5
2017-Apr-21 10:30N 60°12' E 005°36'0 0.0
2017-Apr-21 10:00N 60°12' E 005°36'1 2.8
2017-Apr-21 09:30N 60°13' E 005°33'0 0.3
2017-Apr-21 08:55N 60°13' E 005°33'0 0.1
2017-Apr-21 08:26N 60°13' E 005°32'0 0.2
2017-Apr-21 07:54N 60°13' E 005°32'0 1.2
2017-Apr-21 07:30N 60°13' E 005°33'0 0.2
2017-Apr-21 07:00N 60°13' E 005°33'1 2.6
2017-Apr-21 06:30N 60°13' E 005°36'0 0.4
2017-Apr-21 06:00N 60°12' E 005°36'1 2.5
2017-Apr-21 05:27N 60°13' E 005°33'0 0.6
2017-Apr-21 04:56N 60°13' E 005°32'1 1.8
2017-Apr-21 04:30N 60°13' E 005°34'1 1.6
2017-Apr-21 04:00N 60°13' E 005°35'0 0.5
2017-Apr-21 03:30N 60°12' E 005°36'0 0.0
2017-Apr-21 02:46N 60°12' E 005°36'0 0.0
2017-Apr-21 02:22N 60°12' E 005°36'0 0.0
2017-Apr-21 01:58N 60°12' E 005°36'0 0.0
2017-Apr-21 01:22N 60°12' E 005°36'0 0.0
2017-Apr-21 00:49N 60°12' E 005°36'0 0.0
2017-Apr-21 00:19N 60°12' E 005°36'0 0.0
2017-Apr-20 23:58N 60°12' E 005°36'0 0.0
2017-Apr-20 23:28N 60°12' E 005°36'0 0.0
2017-Apr-20 22:52N 60°12' E 005°36'0 0.0
2017-Apr-20 22:16N 60°12' E 005°36'0 0.0
2017-Apr-20 22:00N 60°12' E 005°36'0 0.0
2017-Apr-20 21:30N 60°12' E 005°36'1 1.4
2017-Apr-20 21:00N 60°13' E 005°34'1 1.2
2017-Apr-20 20:30N 60°13' E 005°36'0 0.0
2017-Apr-20 20:00N 60°13' E 005°36'0 0.3
2017-Apr-20 19:30N 60°12' E 005°36'2 3.2
2017-Apr-20 19:00N 60°13' E 005°32'2 3.2
2017-Apr-20 18:30N 60°12' E 005°36'0 0.2
2017-Apr-20 18:00N 60°12' E 005°36'1 2.9
2017-Apr-20 17:30N 60°13' E 005°33'0 0.0
2017-Apr-20 16:54N 60°13' E 005°33'0 0.9
2017-Apr-20 16:30N 60°13' E 005°34'1 2.1
2017-Apr-20 16:00N 60°13' E 005°36'1 1.2
2017-Apr-20 15:30N 60°13' E 005°34'1 1.6
2017-Apr-20 14:55N 60°13' E 005°32'0 0.3
2017-Apr-20 14:19N 60°13' E 005°33'1 1.7
2017-Apr-20 13:31N 60°12' E 005°36'1 2.7
2017-Apr-20 13:00N 60°13' E 005°33'0 0.4
2017-Apr-20 12:21N 60°13' E 005°33'2 4.7
2017-Apr-20 12:00N 60°12' E 005°36'0 0.3
2017-Apr-20 11:29N 60°12' E 005°36'2 2.6
2017-Apr-20 10:51N 60°13' E 005°32'2 4.6
2017-Apr-20 10:30N 60°12' E 005°36'0 0.0
2017-Apr-20 10:00N 60°12' E 005°36'1 3.0
2017-Apr-20 09:30N 60°13' E 005°33'0 0.0
2017-Apr-20 08:56N 60°13' E 005°33'0 0.6
2017-Apr-20 08:29N 60°13' E 005°32'0 0.0
2017-Apr-20 07:54N 60°13' E 005°32'1 1.7
2017-Apr-20 07:30N 60°13' E 005°34'0 0.3
2017-Apr-20 07:00N 60°13' E 005°33'1 2.1
2017-Apr-20 06:30N 60°13' E 005°36'0 0.4
2017-Apr-20 06:00N 60°12' E 005°36'2 2.7
2017-Apr-20 05:26N 60°13' E 005°33'0 0.1
2017-Apr-20 04:50N 60°13' E 005°33'0 1.3
2017-Apr-20 04:30N 60°13' E 005°34'1 1.9
2017-Apr-20 04:00N 60°13' E 005°36'0 0.3
2017-Apr-20 03:30N 60°12' E 005°36'0 0.0
2017-Apr-20 02:57N 60°12' E 005°36'0 0.0
2017-Apr-20 02:21N 60°12' E 005°36'0 0.0
2017-Apr-20 01:57N 60°12' E 005°36'0 0.0
2017-Apr-20 01:15N 60°12' E 005°36'0 0.0
2017-Apr-20 00:57N 60°12' E 005°36'0 0.0
2017-Apr-20 00:27N 60°12' E 005°36'0 0.0
2017-Apr-19 23:57N 60°12' E 005°36'0 0.0
2017-Apr-19 23:27N 60°12' E 005°36'0 0.0
2017-Apr-19 22:57N 60°12' E 005°36'0 0.0
2017-Apr-19 22:27N 60°12' E 005°36'0 0.0
2017-Apr-19 21:57N 60°12' E 005°36'0 0.0
2017-Apr-19 21:30N 60°12' E 005°36'1 1.1
2017-Apr-19 21:00N 60°13' E 005°35'0 0.8
2017-Apr-19 20:30N 60°13' E 005°35'0 0.1
2017-Apr-19 20:00N 60°13' E 005°36'0 0.5
2017-Apr-19 19:28N 60°12' E 005°36'1 3.1
2017-Apr-19 19:00N 60°13' E 005°33'1 2.8
2017-Apr-19 18:30N 60°13' E 005°36'0 0.4
2017-Apr-19 18:00N 60°12' E 005°36'2 3.1
2017-Apr-19 17:30N 60°13' E 005°33'0 0.2
2017-Apr-19 16:56N 60°13' E 005°32'0 0.7
2017-Apr-19 16:30N 60°13' E 005°33'1 2.4
2017-Apr-19 16:00N 60°13' E 005°35'1 1.1
2017-Apr-19 15:30N 60°13' E 005°34'1 1.2
2017-Apr-19 14:55N 60°13' E 005°33'0 0.7
2017-Apr-19 14:23N 60°13' E 005°32'2 1.9
2017-Apr-19 13:30N 60°12' E 005°36'1 2.6
2017-Apr-19 12:59N 60°13' E 005°33'0 0.5
2017-Apr-19 12:21N 60°13' E 005°33'1 4.2
2017-Apr-19 12:00N 60°13' E 005°36'0 0.5
2017-Apr-19 11:30N 60°12' E 005°36'2 2.7
2017-Apr-19 10:54N 60°13' E 005°32'2 4.2
2017-Apr-19 10:30N 60°12' E 005°36'0 0.0
2017-Apr-19 10:00N 60°12' E 005°36'1 2.6
2017-Apr-19 09:29N 60°13' E 005°33'0 0.4
2017-Apr-19 08:55N 60°13' E 005°33'0 0.0
2017-Apr-19 08:25N 60°13' E 005°33'0 0.1
2017-Apr-19 07:50N 60°13' E 005°33'0 1.0
2017-Apr-19 07:29N 60°13' E 005°33'0 0.5
2017-Apr-19 07:00N 60°13' E 005°34'1 1.9
2017-Apr-19 06:30N 60°12' E 005°36'0 0.3
2017-Apr-19 06:00N 60°12' E 005°36'1 2.2
2017-Apr-19 05:25N 60°13' E 005°33'0 0.3
2017-Apr-19 04:50N 60°13' E 005°33'0 0.9
2017-Apr-19 04:30N 60°13' E 005°33'1 2.3
2017-Apr-19 04:00N 60°12' E 005°36'0 0.3
2017-Apr-19 03:30N 60°12' E 005°36'0 0.0
2017-Apr-19 02:59N 60°12' E 005°36'0 0.0
2017-Apr-19 02:30N 60°12' E 005°36'0 0.0
2017-Apr-19 01:59N 60°12' E 005°36'0 0.0
2017-Apr-19 01:30N 60°12' E 005°36'0 0.0
2017-Apr-19 01:00N 60°12' E 005°36'0 0.0
2017-Apr-19 00:30N 60°12' E 005°36'0 0.0
2017-Apr-19 00:00N 60°12' E 005°36'0 0.0
2017-Apr-18 23:30N 60°12' E 005°36'0 0.0
2017-Apr-18 23:00N 60°12' E 005°36'0 0.0
2017-Apr-18 22:30N 60°12' E 005°36'0 0.0
2017-Apr-18 22:00N 60°12' E 005°36'0 0.0
2017-Apr-18 21:30N 60°12' E 005°36'0 0.9
2017-Apr-18 21:00N 60°13' E 005°35'0 0.9
2017-Apr-18 20:30N 60°12' E 005°36'0 0.0
2017-Apr-18 20:00N 60°12' E 005°36'0 0.1
2017-Apr-18 19:30N 60°12' E 005°36'1 2.8
2017-Apr-18 18:59N 60°13' E 005°33'1 2.1
2017-Apr-18 18:30N 60°13' E 005°35'0 0.9
2017-Apr-18 17:59N 60°12' E 005°36'1 3.0
2017-Apr-18 17:30N 60°13' E 005°33'0 0.1
2017-Apr-18 16:54N 60°13' E 005°33'0 1.0
2017-Apr-18 16:30N 60°13' E 005°34'1 2.0
2017-Apr-18 16:00N 60°12' E 005°36'1 1.0
2017-Apr-18 15:30N 60°13' E 005°35'1 1.4
2017-Apr-18 14:55N 60°13' E 005°33'1 1.4
2017-Apr-18 14:00N 60°13' E 005°35'0 0.4
2017-Apr-18 13:30N 60°12' E 005°36'1 2.7
2017-Apr-18 13:00N 60°13' E 005°33'0 0.2
2017-Apr-18 12:20N 60°13' E 005°33'1 3.8
2017-Apr-18 12:00N 60°12' E 005°35'0 0.4
2017-Apr-18 11:30N 60°12' E 005°36'2 2.3
2017-Apr-18 10:50N 60°13' E 005°33'2 4.5
2017-Apr-18 10:30N 60°12' E 005°36'0 0.0
2017-Apr-18 09:58N 60°12' E 005°36'1 2.8
2017-Apr-18 09:28N 60°13' E 005°33'0 0.4
2017-Apr-18 09:00N 60°13' E 005°33'0 0.2
2017-Apr-18 08:27N 60°13' E 005°33'0 0.4
2017-Apr-18 07:53N 60°13' E 005°32'0 1.3
2017-Apr-18 07:30N 60°13' E 005°33'0 0.2
2017-Apr-18 07:00N 60°13' E 005°34'1 1.9
2017-Apr-18 06:30N 60°13' E 005°35'0 0.4
2017-Apr-18 06:00N 60°12' E 005°36'2 2.6
2017-Apr-18 05:25N 60°13' E 005°33'0 0.3
2017-Apr-18 04:53N 60°13' E 005°32'1 1.6
2017-Apr-18 04:30N 60°13' E 005°34'1 1.5
2017-Apr-18 04:00N 60°13' E 005°35'0 0.5
2017-Apr-18 03:18N 60°12' E 005°36'0 0.0
2017-Apr-18 02:36N 60°12' E 005°36'0 0.0
2017-Apr-18 02:30N 60°12' E 005°36'0 0.0
2017-Apr-18 01:48N 60°12' E 005°36'0 0.0
2017-Apr-18 01:30N 60°12' E 005°36'0 0.0
2017-Apr-18 00:54N 60°12' E 005°36'0 0.0
2017-Apr-18 00:24N 60°12' E 005°36'0 0.0
2017-Apr-18 00:00N 60°12' E 005°36'0 0.0
2017-Apr-17 23:30N 60°12' E 005°36'0 0.0
2017-Apr-17 22:48N 60°12' E 005°36'0 0.0
2017-Apr-17 22:30N 60°12' E 005°36'0 0.0
2017-Apr-17 21:57N 60°12' E 005°36'0 0.0
2017-Apr-17 21:30N 60°12' E 005°36'0 0.0
2017-Apr-17 21:00N 60°12' E 005°36'1 3.0
2017-Apr-17 20:30N 60°13' E 005°33'0 0.0
2017-Apr-17 19:40N 60°13' E 005°33'1 9.2
2017-Apr-17 19:30N 60°12' E 005°36'1 2.6
2017-Apr-17 18:59N 60°13' E 005°33'1 2.6
2017-Apr-17 18:30N 60°13' E 005°36'0 0.4
2017-Apr-17 18:00N 60°12' E 005°36'1 2.9
2017-Apr-17 17:30N 60°13' E 005°33'0 0.1
2017-Apr-17 16:54N 60°13' E 005°33'0 0.2
2017-Apr-17 16:30N 60°13' E 005°33'1 3.0
2017-Apr-17 16:00N 60°12' E 005°36'1 1.3
2017-Apr-17 15:30N 60°13' E 005°34'1 1.6
2017-Apr-17 14:58N 60°13' E 005°33'2 1.6
2017-Apr-17 14:00N 60°12' E 005°36'0 0.3
2017-Apr-17 13:30N 60°12' E 005°36'2 3.1
2017-Apr-17 13:00N 60°13' E 005°33'0 0.2
2017-Apr-17 12:22N 60°13' E 005°32'2 4.3
2017-Apr-17 12:00N 60°13' E 005°36'0 0.4
2017-Apr-17 11:30N 60°12' E 005°36'2 2.4
2017-Apr-17 10:51N 60°13' E 005°32'2 4.4
2017-Apr-17 10:30N 60°12' E 005°36'0 0.3
2017-Apr-17 10:00N 60°12' E 005°36'0 0.5
2017-Apr-17 09:29N 60°13' E 005°35'1 2.3
2017-Apr-17 08:59N 60°13' E 005°33'0 0.7
2017-Apr-17 08:29N 60°13' E 005°32'0 0.2
2017-Apr-17 07:52N 60°13' E 005°33'0 0.7
2017-Apr-17 07:29N 60°13' E 005°33'0 0.4
2017-Apr-17 07:00N 60°13' E 005°33'1 1.9
2017-Apr-17 06:30N 60°13' E 005°35'0 0.4
2017-Apr-17 05:58N 60°12' E 005°36'0 0.3
2017-Apr-17 05:30N 60°12' E 005°36'2 0.2
2017-Apr-16 22:16N 60°13' E 005°32'2 6.3
2017-Apr-16 22:00N 60°12' E 005°36'0 0.1
2017-Apr-16 21:30N 60°12' E 005°36'0 0.0
2017-Apr-16 21:00N 60°12' E 005°36'1 3.0
2017-Apr-16 20:30N 60°13' E 005°33'0 0.4
2017-Apr-16 19:44N 60°13' E 005°32'2 7.0
2017-Apr-16 19:30N 60°12' E 005°36'1 2.7
2017-Apr-16 19:00N 60°13' E 005°33'1 2.5
2017-Apr-16 18:30N 60°12' E 005°35'0 0.4
2017-Apr-16 18:00N 60°12' E 005°36'0 0.7
2017-Apr-16 17:30N 60°13' E 005°35'1 1.8
2017-Apr-16 17:00N 60°13' E 005°33'0 0.8
2017-Apr-16 16:24N 60°13' E 005°32'2 4.2
2017-Apr-16 16:00N 60°12' E 005°36'0 0.4
2017-Apr-16 15:30N 60°13' E 005°35'1 2.3
2017-Apr-16 14:59N 60°13' E 005°33'1 1.4
2017-Apr-16 14:00N 60°13' E 005°35'0 0.3
2017-Apr-16 13:30N 60°12' E 005°36'1 3.0
2017-Apr-16 13:00N 60°13' E 005°33'0 0.2
2017-Apr-16 12:23N 60°13' E 005°32'1 3.8
2017-Apr-16 12:00N 60°13' E 005°35'0 0.5
2017-Apr-16 11:30N 60°12' E 005°36'2 2.4
2017-Apr-16 10:51N 60°13' E 005°33'1 4.0
2017-Apr-16 10:30N 60°13' E 005°35'0 0.5
2017-Apr-16 10:00N 60°12' E 005°36'0 0.2
2017-Apr-16 09:30N 60°12' E 005°36'1 2.2
2017-Apr-16 09:00N 60°13' E 005°33'1 1.1
2017-Apr-16 08:26N 60°13' E 005°32'0 0.0
2017-Apr-16 08:00N 60°13' E 005°32'1 1.2
2017-Apr-16 07:30N 60°13' E 005°33'0 0.5
2017-Apr-16 06:59N 60°13' E 005°33'1 1.9
2017-Apr-16 06:30N 60°13' E 005°35'1 1.1
2017-Apr-16 06:00N 60°12' E 005°36'1 1.0
2017-Apr-16 05:30N 60°13' E 005°35'1 0.1
2017-Apr-15 21:12N 60°13' E 005°32'2 8.0
2017-Apr-15 21:00N 60°12' E 005°36'1 2.9
2017-Apr-15 20:30N 60°13' E 005°33'1 2.8
2017-Apr-15 20:00N 60°12' E 005°36'0 0.0
2017-Apr-15 19:30N 60°12' E 005°36'1 2.6
2017-Apr-15 19:00N 60°13' E 005°33'1 2.5
2017-Apr-15 18:30N 60°12' E 005°36'0 0.2
2017-Apr-15 18:00N 60°12' E 005°36'1 2.4
2017-Apr-15 17:29N 60°13' E 005°33'0 0.9
2017-Apr-15 16:57N 60°13' E 005°32'1 1.4
2017-Apr-15 16:30N 60°13' E 005°34'1 2.0
2017-Apr-15 16:00N 60°13' E 005°36'0 0.9
2017-Apr-15 15:29N 60°13' E 005°35'1 1.3
2017-Apr-15 14:55N 60°13' E 005°33'1 1.2
2017-Apr-15 13:59N 60°13' E 005°35'0 0.4
2017-Apr-15 13:30N 60°12' E 005°36'1 2.9
2017-Apr-15 13:00N 60°13' E 005°33'0 0.2
2017-Apr-15 12:21N 60°13' E 005°33'2 4.2
2017-Apr-15 12:00N 60°13' E 005°36'0 0.4
2017-Apr-15 11:30N 60°12' E 005°36'1 2.1
2017-Apr-15 10:50N 60°13' E 005°33'1 4.3
2017-Apr-15 10:30N 60°13' E 005°36'0 0.3
2017-Apr-15 09:59N 60°12' E 005°36'0 0.5
2017-Apr-15 09:30N 60°13' E 005°35'1 2.1
2017-Apr-15 09:00N 60°13' E 005°33'0 0.9
2017-Apr-15 08:30N 60°13' E 005°32'0 0.0
2017-Apr-15 07:55N 60°13' E 005°32'0 1.0
2017-Apr-15 07:29N 60°13' E 005°33'0 0.1
2017-Apr-15 07:00N 60°13' E 005°33'1 1.7
2017-Apr-15 06:30N 60°13' E 005°35'0 0.8
2017-Apr-15 05:58N 60°12' E 005°36'0 0.0
2017-Apr-15 05:26N 60°12' E 005°36'0 0.3
2017-Apr-15 05:00N 60°12' E 005°36'1 1.9
2017-Apr-15 04:30N 60°13' E 005°34'1 1.9
2017-Apr-15 03:59N 60°12' E 005°36'0 0.0
2017-Apr-15 03:26N 60°12' E 005°36'0 0.0
2017-Apr-15 02:44N 60°12' E 005°36'0 0.0
2017-Apr-15 02:26N 60°12' E 005°36'0 0.0
2017-Apr-15 01:56N 60°12' E 005°36'0 0.0
2017-Apr-15 01:20N 60°12' E 005°36'0 0.0
2017-Apr-15 00:35N 60°12' E 005°36'0 0.0
2017-Apr-15 00:29N 60°12' E 005°36'0 0.0
2017-Apr-14 23:53N 60°12' E 005°36'0 0.0
2017-Apr-14 23:29N 60°12' E 005°36'0 0.0
2017-Apr-14 22:50N 60°12' E 005°36'0 0.0
2017-Apr-14 22:26N 60°12' E 005°36'0 0.0
2017-Apr-14 22:00N 60°12' E 005°36'0 0.0
2017-Apr-14 21:30N 60°12' E 005°36'0 0.0
2017-Apr-14 20:59N 60°12' E 005°36'1 2.6
2017-Apr-14 20:30N 60°13' E 005°33'0 0.3
2017-Apr-14 19:42N 60°13' E 005°33'1 7.7
2017-Apr-14 19:30N 60°12' E 005°36'1 2.9
2017-Apr-14 19:00N 60°13' E 005°33'1 2.3
2017-Apr-14 18:30N 60°13' E 005°35'0 0.7
2017-Apr-14 17:58N 60°12' E 005°36'1 2.7
2017-Apr-14 17:30N 60°13' E 005°33'0 0.9
2017-Apr-14 16:59N 60°13' E 005°32'0 0.0
2017-Apr-14 16:30N 60°13' E 005°32'1 2.7
2017-Apr-14 15:59N 60°13' E 005°35'0 0.2
2017-Apr-14 15:30N 60°13' E 005°35'1 2.2
2017-Apr-14 14:57N 60°13' E 005°33'1 1.3
2017-Apr-14 13:59N 60°13' E 005°35'0 0.6
2017-Apr-14 13:30N 60°12' E 005°36'1 2.6
2017-Apr-14 13:00N 60°13' E 005°33'0 0.2
2017-Apr-14 12:21N 60°13' E 005°33'1 3.5
2017-Apr-14 12:00N 60°13' E 005°35'0 0.6
2017-Apr-14 11:30N 60°12' E 005°36'2 2.4
2017-Apr-14 10:52N 60°13' E 005°33'1 2.0
2017-Apr-14 10:30N 60°13' E 005°34'1 1.7
2017-Apr-14 10:00N 60°12' E 005°36'0 0.1
2017-Apr-14 09:30N 60°12' E 005°36'1 2.0
2017-Apr-14 09:00N 60°13' E 005°34'1 1.3
2017-Apr-14 08:27N 60°13' E 005°32'0 0.1
2017-Apr-14 07:52N 60°13' E 005°32'1 1.6
2017-Apr-14 07:30N 60°13' E 005°34'0 0.4
2017-Apr-14 07:00N 60°13' E 005°34'1 1.3
2017-Apr-14 06:30N 60°13' E 005°35'0 0.5
2017-Apr-14 06:00N 60°12' E 005°36'0 0.8
2017-Apr-14 05:30N 60°13' E 005°35'1 0.2
2017-Apr-13 22:10N 60°13' E 005°32'2 9.6
2017-Apr-13 22:00N 60°12' E 005°36'0 0.2
2017-Apr-13 21:30N 60°12' E 005°36'0 0.1
2017-Apr-13 21:00N 60°12' E 005°36'2 3.0
2017-Apr-13 20:30N 60°13' E 005°33'0 0.4
2017-Apr-13 20:00N 60°13' E 005°32'  

Dump ship's entire track history